Glenn Dale, Maryland
Current Conditions -  °F | °C
As of 11:05 AM on Thursday 25 Dec 2014 (Local Time) from KCGS Reporting Station
Scattered Clouds Scattered Clouds  
Wind Chill: 11°   Ceiling: Unl
Heat Index: 11°   Visibility: 10mi
Dew Point: -1°   Wind: 8mph
Humidity: 44%   Direction: 270°W
Pressure: 29.93"   Gusts: 22mph
Location:  38.99°N, 76.82°W
Report Text: KCGS 251605Z AUTO 27007G19KT 10SM SCT065 11/M01 A2993 RMK AO1
Loading
Personal Weather Stations






























Interactive Weather Map New forecast layout! Learn more

10-Day Weather Forecast

Advertisements
Track Severe Weather on mobile